INFORMACIÓN METAR y TAF
METAR FOR LERS
ADDS - METARS form results

(1754 UTC 29 January 2020)
Data provider http://aviationweather.gov/metar/data/
 
METAR text: LERS 291730Z 25004KT 9999 FEW030 12/12 Q1021
Conditions at: LERS (REUS (CIV/MIL) , ES) observed 1730 UTC 29 January 2020
Temperature: 12.0°C (54°F)
Dewpoint: 12.0°C (54°F) [RH = 100%]
Pressure (altimeter): 30.15 inches Hg (1021.0 mb)
Winds: from the WSW (250 degrees) at 5 MPH (4 knots; 2.1 m/s)
Visibility: 6 or more miles (10+ km)
Ceiling: at least 12,000 feet AGL
Clouds: few clouds at 3000 feet AGL
Weather: no significant weather observed at this time

METAR text: LERS 291700Z 20003KT 170V230 9999 FEW040 13/11 Q1020
Conditions at: LERS (REUS (CIV/MIL) , ES) observed 1700 UTC 29 January 2020
Temperature: 13.0°C (55°F)
Dewpoint: 11.0°C (52°F) [RH = 88%]
Pressure (altimeter): 30.12 inches Hg (1020.0 mb)
Winds: from the SSW (200 degrees) at 3 MPH (3 knots; 1.5 m/s)
Visibility: 6 or more miles (10+ km)
Ceiling: at least 12,000 feet AGL
Clouds: few clouds at 4000 feet AGL
Weather: no significant weather observed at this time

Forecast for: LERS (REUS (CIV/MIL) , ES)
Text: TAF LERS 291400Z 2915/3015 VRB04KT 9999 FEW030 TX19/3012Z TN08/3006Z
Forecast period: 1500 UTC 29 January 2020 to 1500 UTC 30 January 2020
Forecast type: FROM: standard forecast or significant change
Winds: variable direction winds at 5 MPH (4 knots; 2.1 m/s)
Visibility: 6 or more miles 10+ km)
Ceiling: at least 12,000 feet AGL
Clouds: few clouds at 3000 feet AGL
Weather: no significant weather forecast for this period
Text: TEMPO 3012/3015 27010KT
Forecast period: 1200 to 1500 UTC 30 January 2020
Forecast type: TEMPORARY: The following changes expected for less than half the time period
Winds: from the W (270 degrees) at 12 MPH (10 knots; 5.1 m/s)
Visibility: missing
Ceiling: unknown
Clouds: missing
Weather: no significant weather forecast for this period

 MAPA DE AEROPUERTO

 INFORMACIÓN DE PISTA

 FRECUANCIAS DEL AEROPUERTO
Tipo APP Nombre APP Frecuencia 118.15 MHZ
Tipo GND Nombre GND Frecuencia 121.7 MHZ
Tipo TWR Nombre TWR Frecuencia 118.15 MHZ

 RADIO AYUDAS DEL AEROPUERTO
Tipo VOR-DME Nombre Reus Frecuencia 114200 KHZ
Tipo NDB Nombre Reus Frecuencia 424 KHZ